Time;durP1;ratioP1;P1;durP2;ratioP2;P2;SDS_P1;SDS_P2;PMS_P1;PMS_P2;Temp;Humidity;BMP_temperature;BMP_pressure;BME280_temperature;BME280_humidity;BME280_pressure;Samples;Min_cycle;Max_cycle;Signal;HPM_P1;HPM_P2
2022/09/22 00:01:57;;;;;;;7.75;4.25;;;10.10;99.90;;;;;;2586941;46;20235;31
2022/09/22 00:04:30;;;;;;;10.70;4.50;;;10.10;99.90;;;;;;2586183;54;20046;31
2022/09/22 00:07:04;;;;;;;10.75;5.30;;;10.00;99.90;;;;;;2586176;54;20049;31
2022/09/22 00:09:36;;;;;;;6.00;3.90;;;10.00;99.90;;;;;;2586394;54;20905;31
2022/09/22 00:12:09;;;;;;;7.73;3.87;;;9.90;99.90;;;;;;2586046;54;20811;31
2022/09/22 00:14:41;;;;;;;7.20;4.65;;;9.90;99.90;;;;;;2585921;54;20026;31
2022/09/22 00:17:12;;;;;;;8.10;5.18;;;9.90;99.90;;;;;;2586263;54;20942;31
2022/09/22 00:19:44;;;;;;;6.20;4.67;;;9.90;99.90;;;;;;2586366;54;20018;31
2022/09/22 00:22:19;;;;;;;10.77;4.57;;;9.80;99.90;;;;;;2586382;54;20022;31
2022/09/22 00:24:51;;;;;;;10.50;4.90;;;9.80;99.90;;;;;;2586037;54;20858;31
2022/09/22 00:27:24;;;;;;;6.80;4.55;;;9.70;99.90;;;;;;2586254;54;21027;31
2022/09/22 00:29:56;;;;;;;7.97;4.80;;;9.70;99.90;;;;;;2585944;54;20882;31
2022/09/22 00:32:29;;;;;;;5.88;3.60;;;9.70;99.90;;;;;;2585979;54;20056;31
2022/09/22 00:35:01;;;;;;;6.05;3.45;;;9.70;99.90;;;;;;2586146;54;20878;31
2022/09/22 00:37:36;;;;;;;7.10;4.40;;;9.70;99.90;;;;;;2585997;54;20027;31
2022/09/22 00:40:08;;;;;;;8.83;5.53;;;9.70;99.90;;;;;;2586123;54;20745;31
2022/09/22 00:42:41;;;;;;;8.90;4.55;;;9.70;99.90;;;;;;2585779;54;20258;31
2022/09/22 00:45:13;;;;;;;6.13;3.92;;;9.80;99.90;;;;;;2585858;54;20118;31
2022/09/22 00:47:45;;;;;;;6.30;4.28;;;9.90;99.90;;;;;;2586128;54;20030;31
2022/09/22 00:50:18;;;;;;;7.90;3.80;;;9.70;99.90;;;;;;2585920;54;20018;31
2022/09/22 00:52:55;;;;;;;8.50;4.30;;;9.60;99.90;;;;;;2584946;54;20943;31
2022/09/22 00:55:30;;;;;;;5.55;3.72;;;9.60;99.90;;;;;;2585590;54;20843;31
2022/09/22 00:58:03;;;;;;;11.10;4.72;;;9.60;99.90;;;;;;2586056;54;20026;31
2022/09/22 01:00:36;;;;;;;8.52;5.15;;;9.50;99.90;;;;;;2585947;54;20022;31
2022/09/22 01:03:10;;;;;;;11.38;5.72;;;9.40;99.90;;;;;;2585921;54;20523;31
2022/09/22 01:05:42;;;;;;;11.00;6.32;;;9.30;99.90;;;;;;2586134;54;20883;31
2022/09/22 01:08:17;;;;;;;8.90;5.95;;;9.30;99.90;;;;;;2585853;54;20120;31
2022/09/22 01:10:50;;;;;;;6.18;5.00;;;9.30;99.90;;;;;;2587902;39;22255;31
2022/09/22 01:13:26;;;;;;;9.80;5.67;;;9.20;99.90;;;;;;2585634;54;20044;31
2022/09/22 01:18:32;;;;;;;11.95;6.35;;;9.20;99.90;;;;;;2585527;54;20230;31
2022/09/22 01:21:21;;;;;;;10.67;6.63;;;9.20;99.90;;;;;;2585979;54;20019;31
2022/09/22 01:24:16;;;;;;;8.18;5.65;;;9.20;99.90;;;;;;2585839;54;20874;31
2022/09/22 01:27:23;;;;;;;13.25;6.60;;;9.20;99.90;;;;;;2586090;54;20811;31
2022/09/22 01:30:17;;;;;;;7.25;5.78;;;9.10;99.90;;;;;;2585461;54;20876;31
2022/09/22 01:33:11;;;;;;;11.00;6.32;;;9.10;99.90;;;;;;2586071;54;20046;31
2022/09/22 01:35:49;;;;;;;11.87;6.87;;;9.20;99.90;;;;;;2585722;54;20026;31
2022/09/22 01:38:29;;;;;;;11.40;6.10;;;9.10;99.90;;;;;;2585790;54;20317;31
2022/09/22 01:41:02;;;;;;;12.38;5.93;;;9.40;99.90;;;;;;2585904;54;20251;31
2022/09/22 01:43:40;;;;;;;13.15;6.05;;;9.10;99.90;;;;;;2585943;54;20026;31
2022/09/22 01:46:16;;;;;;;8.50;6.32;;;9.50;99.90;;;;;;2585841;54;20046;31
2022/09/22 01:48:50;;;;;;;14.27;6.30;;;9.10;99.90;;;;;;2585198;54;20025;31
2022/09/22 01:51:26;;;;;;;8.00;5.80;;;9.60;99.90;;;;;;2585849;54;20908;31
2022/09/22 01:54:01;;;;;;;9.25;5.75;;;9.40;99.90;;;;;;2585856;54;20022;31
2022/09/22 01:56:35;;;;;;;7.70;6.10;;;9.00;99.90;;;;;;2584864;54;20888;31
2022/09/22 01:59:08;;;;;;;11.30;5.95;;;9.10;99.90;;;;;;2585714;54;20264;31
2022/09/22 02:01:44;;;;;;;8.38;5.25;;;9.20;99.90;;;;;;2585487;54;20872;31
2022/09/22 02:04:19;;;;;;;8.40;5.60;;;9.00;99.90;;;;;;2585494;54;20022;31
2022/09/22 02:06:54;;;;;;;9.50;6.13;;;9.30;99.90;;;;;;2585463;54;20913;31
2022/09/22 02:09:28;;;;;;;11.40;5.50;;;9.00;99.90;;;;;;2585666;54;20729;31
2022/09/22 02:12:00;;;;;;;10.45;6.60;;;9.00;99.90;;;;;;2585732;54;21074;31
2022/09/22 02:14:32;;;;;;;8.15;5.20;;;8.90;99.90;;;;;;2585766;54;20763;31
2022/09/22 02:17:06;;;;;;;9.20;6.32;;;8.90;99.90;;;;;;2585608;54;20908;31
2022/09/22 02:19:39;;;;;;;7.20;5.00;;;8.80;99.90;;;;;;2585487;54;20054;31
2022/09/22 02:22:13;;;;;;;8.30;4.20;;;8.80;99.90;;;;;;2585653;54;20937;31
2022/09/22 02:24:47;;;;;;;10.63;6.43;;;8.80;99.90;;;;;;2585743;54;20919;31
2022/09/22 02:27:25;;;;;;;7.03;4.88;;;8.80;99.90;;;;;;2585608;54;20893;31
2022/09/22 02:29:59;;;;;;;6.70;4.90;;;8.70;99.90;;;;;;2585860;54;20724;31
2022/09/22 02:32:36;;;;;;;7.50;4.15;;;8.90;99.90;;;;;;2585618;54;21028;31
2022/09/22 02:35:10;;;;;;;6.00;4.05;;;9.10;99.90;;;;;;2585683;54;20863;31
2022/09/22 02:37:43;;;;;;;7.28;4.40;;;8.70;99.90;;;;;;2586455;54;20740;31
2022/09/22 02:40:19;;;;;;;6.77;4.40;;;8.70;99.90;;;;;;2586482;54;20748;31
2022/09/22 02:42:55;;;;;;;7.60;4.95;;;8.70;99.90;;;;;;2586216;54;20047;31
2022/09/22 02:45:28;;;;;;;4.15;2.92;;;8.80;99.90;;;;;;2586142;54;20168;31
2022/09/22 02:48:06;;;;;;;5.20;3.90;;;8.60;99.90;;;;;;2604407;46;20895;31
2022/09/22 02:50:40;;;;;;;5.85;3.60;;;8.70;99.90;;;;;;2586249;54;20026;31
2022/09/22 02:53:15;;;;;;;5.25;3.25;;;9.00;99.90;;;;;;2586341;54;20851;31
2022/09/22 02:55:46;;;;;;;7.25;4.80;;;8.80;99.90;;;;;;2586302;54;20871;31
2022/09/22 02:58:19;;;;;;;5.40;4.10;;;8.70;99.90;;;;;;2586286;54;20033;31
2022/09/22 03:00:53;;;;;;;7.95;5.15;;;8.40;99.90;;;;;;2586182;54;20903;31
2022/09/22 03:03:26;;;;;;;9.57;3.95;;;8.40;99.90;;;;;;2586298;54;20869;31
2022/09/22 03:05:59;;;;;;;7.20;3.72;;;8.30;99.90;;;;;;2586716;46;20905;31
2022/09/22 03:08:33;;;;;;;5.68;3.83;;;8.20;99.90;;;;;;2586132;54;20046;31
2022/09/22 03:11:04;;;;;;;4.70;3.83;;;8.20;99.90;;;;;;2586209;54;20894;31
2022/09/22 03:13:38;;;;;;;7.45;3.97;;;8.20;99.90;;;;;;2586118;54;20028;31
2022/09/22 03:16:10;;;;;;;6.25;3.92;;;8.10;99.90;;;;;;2586406;54;20853;31
2022/09/22 03:18:46;;;;;;;11.32;4.72;;;8.10;99.90;;;;;;2586343;54;20926;31
2022/09/22 03:21:18;;;;;;;4.87;3.67;;;8.30;99.90;;;;;;2586018;54;20079;31
2022/09/22 03:23:52;;;;;;;5.68;3.40;;;8.00;99.90;;;;;;2585466;54;20368;31
2022/09/22 03:26:24;;;;;;;5.83;3.73;;;8.00;99.90;;;;;;2586257;54;20077;31
2022/09/22 03:28:56;;;;;;;9.27;4.82;;;7.90;99.90;;;;;;2586184;54;20093;31
2022/09/22 03:31:30;;;;;;;5.95;3.92;;;8.00;99.90;;;;;;2586265;54;20921;31
2022/09/22 03:34:07;;;;;;;8.52;3.75;;;7.80;99.90;;;;;;2604631;46;20892;31
2022/09/22 03:36:39;;;;;;;10.95;5.80;;;7.80;99.90;;;;;;2586188;54;20866;31
2022/09/22 03:39:13;;;;;;;7.85;4.18;;;7.70;99.90;;;;;;2586195;54;20878;31
2022/09/22 03:41:47;;;;;;;6.87;4.57;;;7.70;99.90;;;;;;2585411;54;20023;31
2022/09/22 03:44:18;;;;;;;5.60;3.47;;;7.70;99.90;;;;;;2586159;54;20322;31
2022/09/22 03:46:51;;;;;;;5.70;3.95;;;7.60;99.90;;;;;;2586146;54;20756;31
2022/09/22 03:49:28;;;;;;;5.53;4.38;;;7.60;99.90;;;;;;2586312;54;20030;31
2022/09/22 03:52:00;;;;;;;6.43;4.15;;;7.80;99.90;;;;;;2586160;54;20028;31
2022/09/22 03:54:34;;;;;;;6.95;3.97;;;7.60;99.90;;;;;;2586100;54;20902;31
2022/09/22 03:57:06;;;;;;;8.02;3.97;;;7.60;99.90;;;;;;2585911;54;20735;31
2022/09/22 03:59:38;;;;;;;6.77;5.33;;;7.60;99.90;;;;;;2586077;54;19934;31
2022/09/22 04:02:11;;;;;;;6.50;4.20;;;8.00;99.90;;;;;;2604256;46;20085;31
2022/09/22 04:04:47;;;;;;;6.70;4.25;;;7.60;99.90;;;;;;2585904;54;20805;31
2022/09/22 04:07:21;;;;;;;11.00;5.63;;;7.50;99.90;;;;;;2586003;54;20128;31
2022/09/22 04:09:53;;;;;;;10.68;5.45;;;7.50;99.90;;;;;;2586259;54;20246;31
2022/09/22 04:12:24;;;;;;;10.15;5.38;;;7.50;99.90;;;;;;2586023;54;20023;31
2022/09/22 04:14:56;;;;;;;7.47;4.97;;;7.40;99.90;;;;;;2587171;46;20026;31
2022/09/22 04:17:29;;;;;;;9.20;5.90;;;7.60;99.90;;;;;;2586236;54;20025;31
2022/09/22 04:20:07;;;;;;;25.75;7.35;;;7.40;99.90;;;;;;2604065;46;20068;31
2022/09/22 04:22:38;;;;;;;15.27;7.37;;;7.40;99.90;;;;;;2586123;54;20022;31
2022/09/22 04:25:11;;;;;;;16.40;6.77;;;7.70;99.90;;;;;;2585981;54;20896;31
2022/09/22 04:27:45;;;;;;;13.55;7.20;;;7.70;99.90;;;;;;2586008;54;20954;31
2022/09/22 04:30:17;;;;;;;29.70;6.40;;;7.30;99.90;;;;;;2586149;54;20805;31
2022/09/22 04:32:50;;;;;;;71.63;8.37;;;7.30;99.90;;;;;;2586010;54;20037;31
2022/09/22 04:35:27;;;;;;;15.43;4.93;;;7.20;99.90;;;;;;2589376;39;22349;31
2022/09/22 04:37:58;;;;;;;8.30;4.93;;;7.30;99.90;;;;;;2585704;54;20019;31
2022/09/22 04:40:33;;;;;;;5.45;3.75;;;7.60;99.90;;;;;;2585813;54;20893;31
2022/09/22 04:43:05;;;;;;;20.75;5.20;;;7.30;99.90;;;;;;2586112;54;20052;31
2022/09/22 04:45:39;;;;;;;7.60;3.20;;;7.30;99.90;;;;;;2587004;46;20026;31
2022/09/22 04:48:11;;;;;;;27.83;5.95;;;7.40;99.90;;;;;;2604470;46;20895;31
2022/09/22 04:50:47;;;;;;;19.95;5.93;;;7.30;99.90;;;;;;2603904;46;20855;31
2022/09/22 04:53:20;;;;;;;83.07;8.57;;;7.40;99.90;;;;;;2585992;54;20029;31
2022/09/22 04:55:56;;;;;;;75.72;8.10;;;7.30;99.90;;;;;;2586046;54;20048;31
2022/09/22 04:58:30;;;;;;;52.15;7.75;;;7.30;99.90;;;;;;2595248;46;20097;31
2022/09/22 05:01:06;;;;;;;69.40;8.05;;;7.30;99.90;;;;;;2586739;46;20081;31
2022/09/22 05:03:39;;;;;;;19.37;5.30;;;7.20;99.90;;;;;;2585801;54;20022;31
2022/09/22 05:06:15;;;;;;;5.50;4.80;;;7.20;99.90;;;;;;2586052;54;20034;31
2022/09/22 05:08:47;;;;;;;;;;;7.30;99.90;;;;;;2597214;46;20046;31
2022/09/22 05:11:22;;;;;;;19.40;6.95;;;7.30;99.90;;;;;;2604236;46;19958;31
2022/09/22 05:13:57;;;;;;;44.50;8.95;;;7.40;99.90;;;;;;2585967;54;20871;31
2022/09/22 05:16:30;;;;;;;21.33;8.80;;;7.30;99.90;;;;;;2586077;54;20027;31
2022/09/22 05:19:02;;;;;;;44.25;9.68;;;7.30;99.90;;;;;;2585582;54;20050;31
2022/09/22 05:21:38;;;;;;;159.45;15.05;;;7.30;99.90;;;;;;2599502;46;20881;31
2022/09/22 05:24:12;;;;;;;174.88;14.02;;;7.20;99.90;;;;;;2586019;54;20030;31
2022/09/22 05:26:45;;;;;;;99.20;12.65;;;7.40;99.90;;;;;;2585881;54;20022;31
2022/09/22 05:29:17;;;;;;;83.28;13.20;;;7.60;99.90;;;;;;2585607;54;20123;31
2022/09/22 05:31:50;;;;;;;111.75;13.05;;;7.40;99.90;;;;;;2585826;54;20877;31
2022/09/22 05:34:26;;;;;;;84.23;11.77;;;7.40;99.90;;;;;;2585773;54;20030;31
2022/09/22 05:37:02;;;;;;;66.80;11.68;;;7.40;99.90;;;;;;2683604;39;22346;31
2022/09/22 05:39:34;;;;;;;20.88;8.85;;;7.80;99.90;;;;;;2585679;54;20109;31
2022/09/22 05:42:06;;;;;;;39.80;11.20;;;7.50;99.90;;;;;;2585719;54;20899;31
2022/09/22 05:44:45;;;;;;;18.60;9.90;;;7.60;99.90;;;;;;2585841;54;20037;31
2022/09/22 05:47:18;;;;;;;16.17;9.77;;;7.60;99.90;;;;;;2585682;54;20057;31
2022/09/22 05:49:53;;;;;;;38.85;12.15;;;7.70;99.90;;;;;;2585721;54;20101;31
2022/09/22 05:52:30;;;;;;;20.37;10.43;;;7.70;99.90;;;;;;2585530;54;20157;31
2022/09/22 05:55:02;;;;;;;23.90;10.70;;;7.90;99.90;;;;;;2585734;54;20165;31
2022/09/22 05:57:36;;;;;;;23.15;11.20;;;7.90;99.90;;;;;;2595591;46;20022;31
2022/09/22 06:00:11;;;;;;;41.57;12.93;;;7.80;99.90;;;;;;2585832;54;20853;31
2022/09/22 06:02:46;;;;;;;28.75;12.98;;;7.90;99.90;;;;;;2585693;54;20879;31
2022/09/22 06:05:17;;;;;;;25.60;13.55;;;7.90;99.90;;;;;;2585772;54;20056;31
2022/09/22 06:08:00;;;;;;;35.83;15.10;;;8.00;99.90;;;;;;2585906;54;20038;31
2022/09/22 06:10:36;;;;;;;20.33;13.10;;;7.90;99.90;;;;;;2586319;54;20027;31
2022/09/22 06:13:12;;;;;;;29.00;14.18;;;8.00;99.90;;;;;;2586427;54;20897;31
2022/09/22 06:15:47;;;;;;;27.65;14.65;;;8.00;99.90;;;;;;2586615;54;20827;31
2022/09/22 06:18:21;;;;;;;38.70;15.90;;;8.00;99.90;;;;;;2599478;46;20026;31
2022/09/22 06:20:56;;;;;;;;;;;8.00;99.90;;;;;;2684899;39;22418;31
2022/09/22 06:23:33;;;;;;;46.20;17.00;;;8.00;99.90;;;;;;2605072;46;19934;31
2022/09/22 06:26:13;;;;;;;44.60;16.20;;;8.00;99.90;;;;;;2586589;54;20850;31
2022/09/22 06:28:48;;;;;;;41.97;18.05;;;8.00;99.90;;;;;;2586409;54;21135;31
2022/09/22 06:31:20;;;;;;;67.90;16.45;;;8.10;99.90;;;;;;2604460;46;20585;31
2022/09/22 06:33:54;;;;;;;33.95;14.63;;;8.10;99.90;;;;;;2585984;54;20022;31
2022/09/22 06:36:30;;;;;;;28.65;16.33;;;8.20;99.90;;;;;;2586406;54;20053;31
2022/09/22 06:39:05;;;;;;;56.30;16.63;;;8.20;99.90;;;;;;2586557;54;20056;31
2022/09/22 06:41:38;;;;;;;30.45;13.75;;;8.30;99.90;;;;;;2605049;46;22418;31
2022/09/22 06:44:14;;;;;;;31.45;14.50;;;8.40;99.90;;;;;;2586580;54;20030;31
2022/09/22 06:46:47;;;;;;;19.80;13.70;;;8.50;99.90;;;;;;2604762;46;20030;31
2022/09/22 06:49:21;;;;;;;20.73;14.13;;;8.60;99.90;;;;;;2586625;54;20057;31
2022/09/22 06:51:57;;;;;;;22.17;14.50;;;8.60;99.90;;;;;;2586281;54;20026;31
2022/09/22 06:54:32;;;;;;;18.35;13.27;;;8.70;99.90;;;;;;2586448;54;20954;31
2022/09/22 06:57:07;;;;;;;22.80;14.90;;;8.80;99.90;;;;;;2586457;54;20766;31
2022/09/22 06:59:39;;;;;;;25.00;14.90;;;8.80;99.90;;;;;;2586353;54;20824;31
2022/09/22 07:02:13;;;;;;;24.55;14.55;;;8.90;99.90;;;;;;2604672;46;20161;31
2022/09/22 07:04:47;;;;;;;18.40;13.30;;;9.00;99.90;;;;;;2586031;54;20060;31
2022/09/22 07:07:19;;;;;;;21.03;14.07;;;9.20;99.90;;;;;;2595328;46;20025;31
2022/09/22 07:09:54;;;;;;;17.70;13.70;;;9.40;99.90;;;;;;2586303;54;20235;31
2022/09/22 07:12:29;;;;;;;19.70;14.45;;;9.50;99.90;;;;;;2586261;54;20967;31
2022/09/22 07:15:01;;;;;;;16.10;12.70;;;9.80;99.90;;;;;;2604786;46;20085;31
2022/09/22 07:17:35;;;;;;;18.80;13.50;;;10.00;99.90;;;;;;2585445;54;20026;31
2022/09/22 07:20:08;;;;;;;18.80;14.23;;;10.20;99.90;;;;;;2585976;54;20041;31
2022/09/22 07:22:41;;;;;;;17.80;12.30;;;10.40;99.90;;;;;;2683708;39;21750;31
2022/09/22 07:25:16;;;;;;;15.02;11.90;;;10.50;99.90;;;;;;2586641;54;20858;31
2022/09/22 07:27:51;;;;;;;15.30;11.35;;;10.70;99.90;;;;;;2599275;46;20778;31
2022/09/22 07:30:25;;;;;;;16.50;12.13;;;11.00;99.90;;;;;;2586175;54;20089;31
2022/09/22 07:33:01;;;;;;;13.00;10.10;;;11.20;99.90;;;;;;2586120;54;20815;31
2022/09/22 07:35:37;;;;;;;14.77;11.33;;;11.40;99.90;;;;;;2586323;54;21081;31
2022/09/22 07:38:10;;;;;;;12.95;9.80;;;11.90;99.90;;;;;;2586115;54;20864;31
2022/09/22 07:40:58;;;;;;;16.55;11.45;;;12.40;99.90;;;;;;2586316;54;20819;31
2022/09/22 07:43:31;;;;;;;17.27;14.00;;;12.70;99.90;;;;;;2586077;54;19934;31
2022/09/22 07:46:08;;;;;;;15.20;11.83;;;12.70;99.90;;;;;;2585751;54;20038;31
2022/09/22 07:48:46;;;;;;;17.93;13.00;;;13.00;99.90;;;;;;2586218;54;20018;31
2022/09/22 07:51:20;;;;;;;12.38;10.65;;;13.10;99.90;;;;;;2586167;54;20133;31
2022/09/22 07:53:53;;;;;;;11.95;10.00;;;13.20;99.90;;;;;;2586165;54;20959;31
2022/09/22 07:56:29;;;;;;;11.43;9.40;;;13.60;99.90;;;;;;2586336;54;20754;31
2022/09/22 07:59:09;;;;;;;10.75;9.20;;;14.10;99.90;;;;;;2586203;54;20125;31
2022/09/22 08:01:46;;;;;;;11.00;9.20;;;14.70;99.90;;;;;;2586195;54;20031;31
2022/09/22 08:04:21;;;;;;;10.50;8.48;;;15.00;99.90;;;;;;2586222;54;20899;31
2022/09/22 08:06:56;;;;;;;10.40;8.40;;;15.50;99.90;;;;;;2586200;54;20085;31
2022/09/22 08:09:32;;;;;;;11.15;8.23;;;15.80;99.90;;;;;;2604560;46;20079;31
2022/09/22 08:12:10;;;;;;;;;;;16.20;99.90;;;;;;2586302;54;20180;31
2022/09/22 08:14:46;;;;;;;11.38;7.30;;;16.60;99.90;;;;;;2586215;54;20757;31
2022/09/22 08:17:23;;;;;;;12.00;8.00;;;16.80;99.90;;;;;;2586247;54;20878;31
2022/09/22 08:20:00;;;;;;;8.63;6.57;;;17.10;99.90;;;;;;2585907;54;20406;31
2022/09/22 08:22:34;;;;;;;9.27;6.47;;;17.30;99.90;;;;;;2586138;54;20032;31
2022/09/22 08:25:11;;;;;;;8.73;6.07;;;17.70;99.90;;;;;;2586140;54;20085;31
2022/09/22 08:27:50;;;;;;;6.72;5.78;;;18.10;99.90;;;;;;2585046;54;20977;31
2022/09/22 08:30:24;;;;;;;8.93;6.57;;;18.30;99.90;;;;;;2586908;46;20082;31
2022/09/22 08:32:57;;;;;;;8.10;5.97;;;18.50;99.90;;;;;;2585409;54;20030;31
2022/09/22 08:35:33;;;;;;;9.00;6.40;;;18.60;99.90;;;;;;2597496;31;22363;31
2022/09/22 08:38:06;;;;;;;8.13;5.47;;;18.70;99.90;;;;;;2683605;39;21358;31
2022/09/22 08:40:46;;;;;;;7.53;4.70;;;18.80;99.90;;;;;;2585855;54;20924;31
2022/09/22 08:43:21;;;;;;;5.18;4.05;;;18.90;99.90;;;;;;2586042;54;20049;31
2022/09/22 08:45:56;;;;;;;5.18;3.80;;;19.20;99.90;;;;;;2585809;54;20854;31
2022/09/22 08:53:57;;;;;;;2.78;0.90;;;19.20;99.90;;;;;;2586126;54;20027;31
2022/09/22 08:56:36;;;;;;;1.63;0.90;;;19.50;99.90;;;;;;2586095;54;20883;31
2022/09/22 08:59:14;;;;;;;1.65;0.90;;;19.60;99.90;;;;;;2586888;46;21137;31
2022/09/22 09:01:53;;;;;;;1.43;0.70;;;19.90;99.90;;;;;;2586178;54;19938;31
2022/09/22 09:05:07;;;;;;;1.58;0.50;;;19.90;99.90;;;;;;2585780;54;20830;31
2022/09/22 09:07:44;;;;;;;1.20;0.70;;;20.10;99.90;;;;;;2754428;31;21425;31
2022/09/22 09:10:27;;;;;;;3.78;0.80;;;20.20;99.90;;;;;;2604271;46;20030;31
2022/09/22 09:13:07;;;;;;;1.60;0.50;;;20.30;99.90;;;;;;2586026;54;20019;31
2022/09/22 09:15:47;;;;;;;2.25;0.90;;;20.30;99.90;;;;;;2586143;54;20894;31
2022/09/22 09:18:21;;;;;;;1.67;0.82;;;20.50;99.90;;;;;;2586073;54;21381;31
2022/09/22 09:20:58;;;;;;;0.65;0.50;;;20.60;99.90;;;;;;2585969;54;19934;31
2022/09/22 09:23:32;;;;;;;3.22;0.68;;;20.60;99.90;;;;;;2595345;46;20142;31
2022/09/22 09:26:25;;;;;;;2.70;0.70;;;20.60;99.90;;;;;;2586000;54;21401;31
2022/09/22 09:28:57;;;;;;;2.20;0.68;;;20.80;99.90;;;;;;2585970;54;20939;31
2022/09/22 09:31:41;;;;;;;1.10;0.60;;;20.90;99.90;;;;;;2586008;54;20026;31
2022/09/22 09:34:16;;;;;;;3.70;0.45;;;20.80;99.90;;;;;;2586031;54;20137;31
2022/09/22 09:36:54;;;;;;;0.93;0.47;;;20.80;99.90;;;;;;2585985;54;20855;31
2022/09/22 09:39:28;;;;;;;2.15;0.60;;;20.70;99.90;;;;;;2585983;54;20031;31
2022/09/22 09:41:59;;;;;;;1.00;0.70;;;20.50;99.90;;;;;;2585824;54;20957;31
2022/09/22 09:44:37;;;;;;;1.05;0.60;;;20.50;99.90;;;;;;2604006;46;20936;31
2022/09/22 09:47:18;;;;;;;1.45;0.60;;;20.60;99.90;;;;;;2585989;54;21361;31
2022/09/22 09:49:53;;;;;;;1.60;0.70;;;20.60;99.90;;;;;;2585786;54;20042;31
2022/09/22 09:52:24;;;;;;;2.00;0.60;;;20.60;99.90;;;;;;2683549;39;21363;31
2022/09/22 09:54:59;;;;;;;1.60;0.50;;;20.60;99.90;;;;;;2585911;46;20041;31
2022/09/22 09:57:34;;;;;;;2.65;0.63;;;20.60;99.90;;;;;;2591286;46;20049;31
2022/09/22 10:00:31;;;;;;;1.27;0.50;;;20.60;99.90;;;;;;2585783;54;20900;31
2022/09/22 10:03:15;;;;;;;1.50;0.60;;;20.60;99.90;;;;;;2585851;54;20483;31
2022/09/22 10:06:01;;;;;;;3.97;0.57;;;20.60;99.90;;;;;;2585587;54;20857;31
2022/09/22 10:08:35;;;;;;;1.63;0.60;;;20.60;99.90;;;;;;2603807;47;20908;31
2022/09/22 10:11:11;;;;;;;2.40;0.70;;;20.70;99.90;;;;;;2586376;47;20027;31
2022/09/22 10:13:45;;;;;;;4.70;0.80;;;20.70;99.90;;;;;;2585763;54;20254;31
2022/09/22 10:16:22;;;;;;;1.90;0.80;;;20.70;99.90;;;;;;2585746;54;20924;31
2022/09/22 10:19:05;;;;;;;0.88;0.50;;;20.60;99.90;;;;;;2586067;54;20747;31
2022/09/22 10:21:36;;;;;;;1.30;0.50;;;20.30;99.90;;;;;;2585857;54;20022;31
2022/09/22 10:24:30;;;;;;;1.75;0.50;;;19.80;99.90;;;;;;2682711;39;20659;31
2022/09/22 10:27:02;;;;;;;2.83;1.15;;;19.50;99.90;;;;;;2585761;54;20858;31
2022/09/22 10:29:41;;;;;;;0.93;0.50;;;19.60;99.90;;;;;;2586070;54;20859;31
2022/09/22 10:32:16;;;;;;;1.00;0.40;;;19.70;99.90;;;;;;2585797;54;20026;31
2022/09/22 10:34:55;;;;;;;1.50;0.50;;;19.60;99.90;;;;;;2585993;54;20735;31
2022/09/22 10:37:29;;;;;;;1.23;0.50;;;19.30;99.90;;;;;;2586336;47;20686;31
2022/09/22 10:40:04;;;;;;;1.98;0.60;;;19.30;99.90;;;;;;2584693;54;20088;31
2022/09/22 10:42:39;;;;;;;0.75;0.43;;;19.40;99.90;;;;;;2585542;54;20452;31
2022/09/22 10:45:14;;;;;;;2.80;0.40;;;19.40;99.90;;;;;;2585429;54;21535;31
2022/09/22 10:47:53;;;;;;;1.57;0.50;;;19.50;99.90;;;;;;2585571;54;20713;31
2022/09/22 10:51:06;;;;;;;1.85;0.50;;;19.60;99.90;;;;;;2604088;47;20038;31
2022/09/22 10:53:51;;;;;;;3.10;0.50;;;19.50;99.90;;;;;;2591591;54;20011;31
2022/09/22 10:56:27;;;;;;;1.73;0.37;;;19.10;99.90;;;;;;2588696;54;20250;31
2022/09/22 10:59:17;;;;;;;2.25;0.40;;;19.00;99.90;;;;;;2604945;46;20791;31
2022/09/22 11:02:01;;;;;;;0.82;0.40;;;19.10;99.90;;;;;;2586733;54;20040;31
2022/09/22 11:04:43;;;;;;;1.15;0.50;;;19.20;99.90;;;;;;2586350;54;20701;31
2022/09/22 11:13:13;;;;;;;0.90;0.30;;;19.40;99.90;;;;;;2605043;46;20042;31
2022/09/22 11:16:07;;;;;;;1.50;0.40;;;19.30;99.90;;;;;;2586333;54;20131;31
2022/09/22 11:19:04;;;;;;;1.48;0.28;;;19.10;99.90;;;;;;2587230;46;20239;31
2022/09/22 11:21:44;;;;;;;2.25;0.47;;;18.70;99.90;;;;;;2586392;54;20022;31
2022/09/22 11:24:22;;;;;;;1.50;0.50;;;18.60;99.90;;;;;;2684531;39;20305;31
2022/09/22 11:26:57;;;;;;;0.75;0.40;;;18.60;99.90;;;;;;2586654;54;20756;31
2022/09/22 11:30:02;;;;;;;0.80;0.40;;;18.70;99.90;;;;;;2586586;54;20023;31
2022/09/22 11:33:01;;;;;;;4.28;0.57;;;18.80;99.90;;;;;;2585939;54;20858;31
2022/09/22 11:35:59;;;;;;;3.35;0.50;;;18.90;99.90;;;;;;2586494;54;20031;31
2022/09/22 11:38:56;;;;;;;12.95;5.55;;;18.90;99.90;;;;;;2590505;54;20947;31
2022/09/22 11:41:33;;;;;;;2.92;0.57;;;19.00;99.90;;;;;;2586347;54;20023;31
2022/09/22 11:44:32;;;;;;;1.88;0.60;;;19.00;99.90;;;;;;2586188;54;20495;31
2022/09/22 11:47:33;;;;;;;0.75;0.38;;;18.70;99.90;;;;;;2586314;54;20026;31
2022/09/22 11:50:07;;;;;;;1.52;0.32;;;18.50;99.90;;;;;;2588657;46;20895;31
2022/09/22 11:52:49;;;;;;;1.33;0.38;;;18.30;99.90;;;;;;2589701;46;20157;31
2022/09/22 11:55:28;;;;;;;1.20;0.30;;;18.30;99.90;;;;;;2605057;46;20027;31
2022/09/22 11:58:00;;;;;;;1.52;0.57;;;18.30;99.90;;;;;;2586231;54;20891;31
2022/09/22 12:00:37;;;;;;;1.27;0.57;;;18.30;99.90;;;;;;2586821;54;20070;31
2022/09/22 12:03:10;;;;;;;5.25;2.08;;;18.30;99.90;;;;;;2604961;46;20032;31
2022/09/22 12:05:43;;;;;;;1.55;0.50;;;18.30;99.90;;;;;;2586203;54;20934;31
2022/09/22 12:08:17;;;;;;;0.60;0.30;;;18.30;99.90;;;;;;2586420;54;20026;31
2022/09/22 12:10:54;;;;;;;2.03;0.30;;;18.30;99.90;;;;;;2585804;54;20026;31
2022/09/22 12:13:29;;;;;;;4.45;0.30;;;18.20;99.90;;;;;;2604322;54;20239;31
2022/09/22 12:16:08;;;;;;;2.25;0.20;;;17.90;99.90;;;;;;2586321;54;20942;31
2022/09/22 12:18:49;;;;;;;0.90;0.30;;;17.70;99.90;;;;;;2586504;54;20937;31
2022/09/22 12:21:29;;;;;;;0.75;0.20;;;17.60;99.90;;;;;;2586131;54;20908;31
2022/09/22 12:24:01;;;;;;;3.10;0.30;;;17.60;99.90;;;;;;2602579;54;20710;31
2022/09/22 12:26:34;;;;;;;1.30;0.30;;;17.60;99.90;;;;;;2586221;54;20852;31
2022/09/22 12:29:10;;;;;;;3.85;0.22;;;17.60;99.90;;;;;;2586141;54;20377;31
2022/09/22 12:31:46;;;;;;;1.35;0.40;;;17.50;99.90;;;;;;2605257;46;20859;31
2022/09/22 12:34:17;;;;;;;;;;;17.50;99.90;;;;;;2586382;54;20086;31
2022/09/22 12:36:48;;;;;;;2.15;0.35;;;17.40;99.90;;;;;;2586509;46;20064;31
2022/09/22 12:39:20;;;;;;;0.98;0.22;;;17.40;99.90;;;;;;2585986;54;20767;31
2022/09/22 12:41:52;;;;;;;1.88;0.30;;;17.20;99.90;;;;;;2585625;54;20870;31
2022/09/22 12:44:24;;;;;;;1.43;0.40;;;17.00;99.90;;;;;;2585981;54;20001;31
2022/09/22 12:47:00;;;;;;;2.50;0.30;;;16.80;99.90;;;;;;2585883;54;20917;31
2022/09/22 12:49:31;;;;;;;;;;;16.70;99.90;;;;;;2586406;54;20845;31
2022/09/22 12:52:01;;;;;;;1.73;0.20;;;16.60;99.90;;;;;;2587234;46;19954;31
2022/09/22 12:54:41;;;;;;;0.88;0.30;;;16.60;99.90;;;;;;2586008;54;20927;31
2022/09/22 12:57:28;;;;;;;1.33;0.30;;;16.60;99.90;;;;;;2585458;54;20855;31
2022/09/22 13:00:28;;;;;;;1.08;0.32;;;16.60;99.90;;;;;;2586149;54;20253;31
2022/09/22 13:03:44;;;;;;;1.20;0.43;;;16.60;99.90;;;;;;2585855;54;21649;31
2022/09/22 13:06:46;;;;;;;1.33;0.30;;;16.60;99.90;;;;;;2586517;46;20850;31
2022/09/22 13:09:23;;;;;;;1.42;0.40;;;16.60;99.90;;;;;;2585898;54;20069;31
2022/09/22 13:12:25;;;;;;;1.92;0.40;;;16.60;99.90;;;;;;2585920;54;20121;31
2022/09/22 13:15:25;;;;;;;0.32;0.13;;;16.70;99.90;;;;;;2586018;54;20747;31
2022/09/22 13:17:59;;;;;;;2.53;0.20;;;16.70;99.90;;;;;;2586076;54;20019;31
2022/09/22 13:20:35;;;;;;;0.25;0.20;;;16.70;99.90;;;;;;2585519;54;20887;31
2022/09/22 13:23:07;;;;;;;0.60;0.32;;;16.70;99.90;;;;;;2585989;54;20086;31
2022/09/22 13:25:39;;;;;;;2.42;0.70;;;16.60;99.90;;;;;;2591254;54;20057;31
2022/09/22 13:28:16;;;;;;;3.03;1.00;;;16.70;99.90;;;;;;2602845;54;20034;31
2022/09/22 13:30:48;;;;;;;2.08;0.50;;;16.70;99.90;;;;;;2590200;54;20770;31
2022/09/22 13:33:24;;;;;;;0.80;0.30;;;16.80;99.90;;;;;;2589761;54;20028;31
2022/09/22 13:36:07;;;;;;;1.03;0.30;;;16.90;99.90;;;;;;2585994;54;21292;31
2022/09/22 13:38:42;;;;;;;0.43;0.10;;;16.90;99.90;;;;;;2586140;54;20024;31
2022/09/22 13:41:20;;;;;;;1.50;0.32;;;16.90;99.90;;;;;;2594929;54;20022;31
2022/09/22 13:43:53;;;;;;;11.73;1.40;;;16.90;99.90;;;;;;2591281;46;21437;31
2022/09/22 13:46:27;;;;;;;0.75;0.20;;;17.00;99.90;;;;;;2585870;54;19946;31
2022/09/22 13:48:58;;;;;;;0.90;0.10;;;17.00;99.90;;;;;;2585922;54;20850;31
2022/09/22 13:51:33;;;;;;;1.08;0.10;;;16.90;99.90;;;;;;2604150;46;19939;31
2022/09/22 13:54:05;;;;;;;1.00;0.20;;;16.80;99.90;;;;;;2585944;54;20030;31
2022/09/22 13:56:37;;;;;;;1.15;0.20;;;16.80;99.90;;;;;;2585933;54;20917;31
2022/09/22 13:59:09;;;;;;;0.52;0.28;;;16.70;99.90;;;;;;2585117;54;20042;31
2022/09/22 14:01:47;;;;;;;1.42;0.20;;;16.70;99.90;;;;;;2585942;54;20030;31